sensor_id;sensor_type;location;lat;lon;timestamp;temperature;humidity
51383;DHT22;37475;43.358;1.248;2022-07-06T00:01:38;21.10;78.00
51383;DHT22;37475;43.358;1.248;2022-07-06T00:04:05;21.20;79.70
51383;DHT22;37475;43.358;1.248;2022-07-06T00:06:31;21.10;80.40
51383;DHT22;37475;43.358;1.248;2022-07-06T00:08:57;20.90;81.50
51383;DHT22;37475;43.358;1.248;2022-07-06T00:11:23;20.70;82.10
51383;DHT22;37475;43.358;1.248;2022-07-06T00:13:50;20.60;82.30
51383;DHT22;37475;43.358;1.248;2022-07-06T00:16:17;20.60;81.70
51383;DHT22;37475;43.358;1.248;2022-07-06T00:18:43;20.60;82.30
51383;DHT22;37475;43.358;1.248;2022-07-06T00:21:11;20.60;81.20
51383;DHT22;37475;43.358;1.248;2022-07-06T00:23:37;20.70;81.50
51383;DHT22;37475;43.358;1.248;2022-07-06T00:26:03;20.80;80.80
51383;DHT22;37475;43.358;1.248;2022-07-06T00:28:29;20.70;82.20
51383;DHT22;37475;43.358;1.248;2022-07-06T00:30:55;20.70;81.50
51383;DHT22;37475;43.358;1.248;2022-07-06T00:33:21;20.70;82.40
51383;DHT22;37475;43.358;1.248;2022-07-06T00:35:47;20.50;83.20
51383;DHT22;37475;43.358;1.248;2022-07-06T00:38:13;20.50;83.10
51383;DHT22;37475;43.358;1.248;2022-07-06T00:40:39;20.30;83.40
51383;DHT22;37475;43.358;1.248;2022-07-06T00:43:05;20.10;83.80
51383;DHT22;37475;43.358;1.248;2022-07-06T00:45:31;20.10;83.20
51383;DHT22;37475;43.358;1.248;2022-07-06T00:47:57;20.10;82.40
51383;DHT22;37475;43.358;1.248;2022-07-06T00:50:23;20.20;83.10
51383;DHT22;37475;43.358;1.248;2022-07-06T00:52:58;20.20;82.10
51383;DHT22;37475;43.358;1.248;2022-07-06T00:55:31;20.20;82.80
51383;DHT22;37475;43.358;1.248;2022-07-06T00:58:03;20.00;84.20
51383;DHT22;37475;43.358;1.248;2022-07-06T01:00:30;19.70;85.20
51383;DHT22;37475;43.358;1.248;2022-07-06T01:02:56;19.70;85.40
51383;DHT22;37475;43.358;1.248;2022-07-06T01:05:22;19.80;85.20
51383;DHT22;37475;43.358;1.248;2022-07-06T01:07:51;19.80;84.20
51383;DHT22;37475;43.358;1.248;2022-07-06T01:10:20;19.80;84.40
51383;DHT22;37475;43.358;1.248;2022-07-06T01:12:47;19.80;83.80
51383;DHT22;37475;43.358;1.248;2022-07-06T01:15:24;19.80;83.70
51383;DHT22;37475;43.358;1.248;2022-07-06T01:17:50;19.80;83.70
51383;DHT22;37475;43.358;1.248;2022-07-06T01:20:22;19.70;84.10
51383;DHT22;37475;43.358;1.248;2022-07-06T01:22:51;19.60;84.70
51383;DHT22;37475;43.358;1.248;2022-07-06T01:25:18;19.50;85.30
51383;DHT22;37475;43.358;1.248;2022-07-06T01:27:45;19.40;85.80
51383;DHT22;37475;43.358;1.248;2022-07-06T01:30:13;19.30;86.00
51383;DHT22;37475;43.358;1.248;2022-07-06T01:32:41;19.30;86.20
51383;DHT22;37475;43.358;1.248;2022-07-06T01:35:08;19.30;86.60
51383;DHT22;37475;43.358;1.248;2022-07-06T01:37:36;19.20;86.90
51383;DHT22;37475;43.358;1.248;2022-07-06T01:40:04;19.10;87.70
51383;DHT22;37475;43.358;1.248;2022-07-06T01:42:31;19.10;87.70
51383;DHT22;37475;43.358;1.248;2022-07-06T01:44:57;19.20;87.50
51383;DHT22;37475;43.358;1.248;2022-07-06T01:47:23;19.30;87.10
51383;DHT22;37475;43.358;1.248;2022-07-06T01:49:49;19.30;87.60
51383;DHT22;37475;43.358;1.248;2022-07-06T01:52:15;19.20;87.90
51383;DHT22;37475;43.358;1.248;2022-07-06T01:54:41;19.20;87.80
51383;DHT22;37475;43.358;1.248;2022-07-06T01:57:07;19.20;87.70
51383;DHT22;37475;43.358;1.248;2022-07-06T01:59:33;19.20;87.70
51383;DHT22;37475;43.358;1.248;2022-07-06T02:01:59;19.20;87.50
51383;DHT22;37475;43.358;1.248;2022-07-06T02:04:24;19.30;86.70
51383;DHT22;37475;43.358;1.248;2022-07-06T02:06:51;19.20;86.80
51383;DHT22;37475;43.358;1.248;2022-07-06T02:09:17;19.10;86.80
51383;DHT22;37475;43.358;1.248;2022-07-06T02:11:43;19.00;86.40
51383;DHT22;37475;43.358;1.248;2022-07-06T02:14:09;18.90;86.40
51383;DHT22;37475;43.358;1.248;2022-07-06T02:16:35;18.70;86.70
51383;DHT22;37475;43.358;1.248;2022-07-06T02:19:02;18.70;86.70
51383;DHT22;37475;43.358;1.248;2022-07-06T02:21:28;18.90;86.00
51383;DHT22;37475;43.358;1.248;2022-07-06T02:23:54;18.90;86.00
51383;DHT22;37475;43.358;1.248;2022-07-06T02:26:19;18.90;85.90
51383;DHT22;37475;43.358;1.248;2022-07-06T02:28:45;18.90;85.90
51383;DHT22;37475;43.358;1.248;2022-07-06T02:31:13;18.80;86.40
51383;DHT22;37475;43.358;1.248;2022-07-06T02:33:40;18.60;87.50
51383;DHT22;37475;43.358;1.248;2022-07-06T02:36:06;18.40;87.80
51383;DHT22;37475;43.358;1.248;2022-07-06T02:38:32;18.40;88.30
51383;DHT22;37475;43.358;1.248;2022-07-06T02:40:58;18.30;88.60
51383;DHT22;37475;43.358;1.248;2022-07-06T02:43:24;18.30;88.80
51383;DHT22;37475;43.358;1.248;2022-07-06T02:45:50;18.30;88.60
51383;DHT22;37475;43.358;1.248;2022-07-06T02:48:16;18.30;88.50
51383;DHT22;37475;43.358;1.248;2022-07-06T02:50:43;18.30;88.50
51383;DHT22;37475;43.358;1.248;2022-07-06T02:53:08;18.30;88.50
51383;DHT22;37475;43.358;1.248;2022-07-06T02:55:34;18.20;87.90
51383;DHT22;37475;43.358;1.248;2022-07-06T02:58:00;18.20;87.70
51383;DHT22;37475;43.358;1.248;2022-07-06T03:00:26;18.30;87.50
51383;DHT22;37475;43.358;1.248;2022-07-06T03:02:52;18.30;87.40
51383;DHT22;37475;43.358;1.248;2022-07-06T03:05:18;18.30;87.40
51383;DHT22;37475;43.358;1.248;2022-07-06T03:07:43;18.30;87.30
51383;DHT22;37475;43.358;1.248;2022-07-06T03:10:09;18.30;87.10
51383;DHT22;37475;43.358;1.248;2022-07-06T03:12:35;18.40;86.80
51383;DHT22;37475;43.358;1.248;2022-07-06T03:15:01;18.40;86.30
51383;DHT22;37475;43.358;1.248;2022-07-06T03:17:27;18.40;86.40
51383;DHT22;37475;43.358;1.248;2022-07-06T03:19:52;18.30;86.40
51383;DHT22;37475;43.358;1.248;2022-07-06T03:22:18;18.20;86.90
51383;DHT22;37475;43.358;1.248;2022-07-06T03:24:44;18.20;86.80
51383;DHT22;37475;43.358;1.248;2022-07-06T03:27:10;18.20;86.80
51383;DHT22;37475;43.358;1.248;2022-07-06T03:29:36;18.20;86.70
51383;DHT22;37475;43.358;1.248;2022-07-06T03:32:02;18.20;86.00
51383;DHT22;37475;43.358;1.248;2022-07-06T03:34:28;18.10;85.60
51383;DHT22;37475;43.358;1.248;2022-07-06T03:36:54;18.10;84.90
51383;DHT22;37475;43.358;1.248;2022-07-06T03:39:19;18.10;84.10
51383;DHT22;37475;43.358;1.248;2022-07-06T03:41:45;18.10;83.50
51383;DHT22;37475;43.358;1.248;2022-07-06T03:44:11;18.20;83.00
51383;DHT22;37475;43.358;1.248;2022-07-06T03:46:37;18.10;82.40
51383;DHT22;37475;43.358;1.248;2022-07-06T03:49:02;18.10;82.20
51383;DHT22;37475;43.358;1.248;2022-07-06T03:51:28;18.00;82.50
51383;DHT22;37475;43.358;1.248;2022-07-06T03:53:54;17.80;82.60
51383;DHT22;37475;43.358;1.248;2022-07-06T03:56:20;17.90;83.60
51383;DHT22;37475;43.358;1.248;2022-07-06T03:59:04;18.00;84.70
51383;DHT22;37475;43.358;1.248;2022-07-06T04:01:30;18.00;85.30
51383;DHT22;37475;43.358;1.248;2022-07-06T04:03:57;17.80;85.10
51383;DHT22;37475;43.358;1.248;2022-07-06T04:06:23;17.60;84.60
51383;DHT22;37475;43.358;1.248;2022-07-06T04:08:49;17.60;85.50
51383;DHT22;37475;43.358;1.248;2022-07-06T04:11:15;17.70;86.40
51383;DHT22;37475;43.358;1.248;2022-07-06T04:13:41;17.70;86.10
51383;DHT22;37475;43.358;1.248;2022-07-06T04:16:07;17.80;85.60
51383;DHT22;37475;43.358;1.248;2022-07-06T04:18:33;17.80;85.30
51383;DHT22;37475;43.358;1.248;2022-07-06T04:20:59;17.90;85.30
51383;DHT22;37475;43.358;1.248;2022-07-06T04:23:25;17.90;85.00
51383;DHT22;37475;43.358;1.248;2022-07-06T04:25:51;18.00;85.00
51383;DHT22;37475;43.358;1.248;2022-07-06T04:28:17;18.10;85.30
51383;DHT22;37475;43.358;1.248;2022-07-06T04:30:43;18.00;85.70
51383;DHT22;37475;43.358;1.248;2022-07-06T04:33:09;18.20;85.80
51383;DHT22;37475;43.358;1.248;2022-07-06T04:35:35;18.40;85.10
51383;DHT22;37475;43.358;1.248;2022-07-06T04:38:01;18.90;84.80
51383;DHT22;37475;43.358;1.248;2022-07-06T04:40:26;18.90;83.80
51383;DHT22;37475;43.358;1.248;2022-07-06T04:42:53;18.80;83.00
51383;DHT22;37475;43.358;1.248;2022-07-06T04:45:18;18.60;83.60
51383;DHT22;37475;43.358;1.248;2022-07-06T04:47:45;18.50;83.80
51383;DHT22;37475;43.358;1.248;2022-07-06T04:50:11;18.50;83.70
51383;DHT22;37475;43.358;1.248;2022-07-06T04:52:37;18.50;83.90
51383;DHT22;37475;43.358;1.248;2022-07-06T04:55:04;18.50;83.90
51383;DHT22;37475;43.358;1.248;2022-07-06T04:57:32;18.60;83.70
51383;DHT22;37475;43.358;1.248;2022-07-06T04:59:58;18.60;83.30
51383;DHT22;37475;43.358;1.248;2022-07-06T05:02:24;18.70;83.30
51383;DHT22;37475;43.358;1.248;2022-07-06T05:04:50;18.80;83.10
51383;DHT22;37475;43.358;1.248;2022-07-06T05:07:16;18.80;83.10
51383;DHT22;37475;43.358;1.248;2022-07-06T05:09:42;18.70;83.30
51383;DHT22;37475;43.358;1.248;2022-07-06T05:12:08;18.70;83.50
51383;DHT22;37475;43.358;1.248;2022-07-06T05:14:35;18.80;83.70
51383;DHT22;37475;43.358;1.248;2022-07-06T05:17:02;18.70;84.00
51383;DHT22;37475;43.358;1.248;2022-07-06T05:19:28;18.70;84.20
51383;DHT22;37475;43.358;1.248;2022-07-06T05:21:54;18.80;84.20
51383;DHT22;37475;43.358;1.248;2022-07-06T05:24:20;18.80;84.30
51383;DHT22;37475;43.358;1.248;2022-07-06T05:26:46;18.70;84.90
51383;DHT22;37475;43.358;1.248;2022-07-06T05:29:12;18.70;85.10
51383;DHT22;37475;43.358;1.248;2022-07-06T05:31:38;18.80;84.80
51383;DHT22;37475;43.358;1.248;2022-07-06T05:34:04;18.90;84.60
51383;DHT22;37475;43.358;1.248;2022-07-06T05:36:30;19.00;84.80
51383;DHT22;37475;43.358;1.248;2022-07-06T05:38:56;19.00;84.80
51383;DHT22;37475;43.358;1.248;2022-07-06T05:41:22;19.00;84.90
51383;DHT22;37475;43.358;1.248;2022-07-06T05:43:47;19.10;85.00
51383;DHT22;37475;43.358;1.248;2022-07-06T05:46:13;19.10;84.90
51383;DHT22;37475;43.358;1.248;2022-07-06T05:48:39;19.10;84.90
51383;DHT22;37475;43.358;1.248;2022-07-06T05:51:23;19.10;84.50
51383;DHT22;37475;43.358;1.248;2022-07-06T05:53:49;19.10;84.60
51383;DHT22;37475;43.358;1.248;2022-07-06T05:56:15;19.10;84.80
51383;DHT22;37475;43.358;1.248;2022-07-06T05:58:41;19.10;85.00
51383;DHT22;37475;43.358;1.248;2022-07-06T06:01:07;19.10;85.10
51383;DHT22;37475;43.358;1.248;2022-07-06T06:03:34;19.20;85.10
51383;DHT22;37475;43.358;1.248;2022-07-06T06:06:00;19.30;84.80
51383;DHT22;37475;43.358;1.248;2022-07-06T06:08:26;19.40;84.40
51383;DHT22;37475;43.358;1.248;2022-07-06T06:10:52;19.40;83.80
51383;DHT22;37475;43.358;1.248;2022-07-06T06:13:19;19.50;83.50
51383;DHT22;37475;43.358;1.248;2022-07-06T06:15:44;19.40;82.50
51383;DHT22;37475;43.358;1.248;2022-07-06T06:18:10;19.40;82.40
51383;DHT22;37475;43.358;1.248;2022-07-06T06:20:36;19.50;82.30
51383;DHT22;37475;43.358;1.248;2022-07-06T06:23:02;19.50;82.30
51383;DHT22;37475;43.358;1.248;2022-07-06T06:25:34;19.50;81.80
51383;DHT22;37475;43.358;1.248;2022-07-06T06:28:03;19.50;81.80
51383;DHT22;37475;43.358;1.248;2022-07-06T06:30:30;19.50;81.80
51383;DHT22;37475;43.358;1.248;2022-07-06T06:35:31;19.70;82.00
51383;DHT22;37475;43.358;1.248;2022-07-06T06:37:57;19.80;81.50
51383;DHT22;37475;43.358;1.248;2022-07-06T06:40:23;19.80;81.30
51383;DHT22;37475;43.358;1.248;2022-07-06T06:42:48;19.80;81.20
51383;DHT22;37475;43.358;1.248;2022-07-06T06:45:14;19.90;81.10
51383;DHT22;37475;43.358;1.248;2022-07-06T06:47:40;20.10;80.50
51383;DHT22;37475;43.358;1.248;2022-07-06T06:50:06;20.10;80.60
51383;DHT22;37475;43.358;1.248;2022-07-06T06:52:32;20.20;80.50
51383;DHT22;37475;43.358;1.248;2022-07-06T06:54:58;20.20;80.60
51383;DHT22;37475;43.358;1.248;2022-07-06T06:57:25;20.20;81.00
51383;DHT22;37475;43.358;1.248;2022-07-06T06:59:51;20.20;80.70
51383;DHT22;37475;43.358;1.248;2022-07-06T07:02:17;20.30;79.80
51383;DHT22;37475;43.358;1.248;2022-07-06T07:04:43;20.40;79.30
51383;DHT22;37475;43.358;1.248;2022-07-06T07:07:09;20.50;78.60
51383;DHT22;37475;43.358;1.248;2022-07-06T07:09:35;20.50;78.60
51383;DHT22;37475;43.358;1.248;2022-07-06T07:12:01;20.50;78.00
51383;DHT22;37475;43.358;1.248;2022-07-06T07:14:27;20.40;77.10
51383;DHT22;37475;43.358;1.248;2022-07-06T07:16:53;20.50;77.20
51383;DHT22;37475;43.358;1.248;2022-07-06T07:19:19;20.50;76.50
51383;DHT22;37475;43.358;1.248;2022-07-06T07:21:45;20.60;77.10
51383;DHT22;37475;43.358;1.248;2022-07-06T07:24:10;20.70;76.00
51383;DHT22;37475;43.358;1.248;2022-07-06T07:26:36;20.70;76.00
51383;DHT22;37475;43.358;1.248;2022-07-06T07:29:03;20.60;76.60
51383;DHT22;37475;43.358;1.248;2022-07-06T07:31:29;20.70;76.40
51383;DHT22;37475;43.358;1.248;2022-07-06T07:33:54;20.70;75.80
51383;DHT22;37475;43.358;1.248;2022-07-06T07:36:23;20.80;75.80
51383;DHT22;37475;43.358;1.248;2022-07-06T07:38:49;20.80;75.20
51383;DHT22;37475;43.358;1.248;2022-07-06T07:41:16;20.80;75.90
51383;DHT22;37475;43.358;1.248;2022-07-06T07:43:42;20.70;75.50
51383;DHT22;37475;43.358;1.248;2022-07-06T07:46:09;20.60;75.50
51383;DHT22;37475;43.358;1.248;2022-07-06T07:48:34;20.70;76.00
51383;DHT22;37475;43.358;1.248;2022-07-06T07:51:00;20.70;76.40
51383;DHT22;37475;43.358;1.248;2022-07-06T07:53:26;20.70;75.50
51383;DHT22;37475;43.358;1.248;2022-07-06T07:55:52;20.70;75.20
51383;DHT22;37475;43.358;1.248;2022-07-06T07:58:18;20.80;74.80
51383;DHT22;37475;43.358;1.248;2022-07-06T08:00:45;20.80;75.30
51383;DHT22;37475;43.358;1.248;2022-07-06T08:03:11;20.80;74.70
51383;DHT22;37475;43.358;1.248;2022-07-06T08:05:38;20.90;74.90
51383;DHT22;37475;43.358;1.248;2022-07-06T08:08:04;21.00;75.10
51383;DHT22;37475;43.358;1.248;2022-07-06T08:10:30;21.10;75.10
51383;DHT22;37475;43.358;1.248;2022-07-06T08:12:57;21.20;74.70
51383;DHT22;37475;43.358;1.248;2022-07-06T08:15:22;21.10;74.80
51383;DHT22;37475;43.358;1.248;2022-07-06T08:17:48;21.10;74.60
51383;DHT22;37475;43.358;1.248;2022-07-06T08:20:14;21.10;74.40
51383;DHT22;37475;43.358;1.248;2022-07-06T08:22:42;21.10;73.80
51383;DHT22;37475;43.358;1.248;2022-07-06T08:25:09;21.10;73.40
51383;DHT22;37475;43.358;1.248;2022-07-06T08:27:35;21.00;73.50
51383;DHT22;37475;43.358;1.248;2022-07-06T08:30:03;21.00;73.60
51383;DHT22;37475;43.358;1.248;2022-07-06T08:32:29;21.00;74.80
51383;DHT22;37475;43.358;1.248;2022-07-06T08:34:55;20.90;73.40
51383;DHT22;37475;43.358;1.248;2022-07-06T08:37:21;20.90;73.80
51383;DHT22;37475;43.358;1.248;2022-07-06T08:39:47;21.10;73.90
51383;DHT22;37475;43.358;1.248;2022-07-06T08:42:15;21.10;74.50
51383;DHT22;37475;43.358;1.248;2022-07-06T08:44:41;21.20;72.80
51383;DHT22;37475;43.358;1.248;2022-07-06T08:47:08;21.10;73.40
51383;DHT22;37475;43.358;1.248;2022-07-06T08:49:35;21.30;73.70
51383;DHT22;37475;43.358;1.248;2022-07-06T08:52:03;21.20;73.30
51383;DHT22;37475;43.358;1.248;2022-07-06T08:54:30;21.10;73.30
51383;DHT22;37475;43.358;1.248;2022-07-06T08:56:56;21.30;72.20
51383;DHT22;37475;43.358;1.248;2022-07-06T08:59:22;21.50;72.10
51383;DHT22;37475;43.358;1.248;2022-07-06T09:01:48;21.40;72.70
51383;DHT22;37475;43.358;1.248;2022-07-06T09:04:18;21.60;71.60
51383;DHT22;37475;43.358;1.248;2022-07-06T09:06:47;21.80;71.30
51383;DHT22;37475;43.358;1.248;2022-07-06T09:09:19;22.00;70.00
51383;DHT22;37475;43.358;1.248;2022-07-06T09:11:46;22.00;69.80
51383;DHT22;37475;43.358;1.248;2022-07-06T09:14:13;22.00;69.90
51383;DHT22;37475;43.358;1.248;2022-07-06T09:16:39;22.00;68.90
51383;DHT22;37475;43.358;1.248;2022-07-06T09:19:11;22.20;68.90
51383;DHT22;37475;43.358;1.248;2022-07-06T09:21:37;22.30;68.70
51383;DHT22;37475;43.358;1.248;2022-07-06T09:24:12;22.50;68.40
51383;DHT22;37475;43.358;1.248;2022-07-06T09:26:39;22.50;67.40
51383;DHT22;37475;43.358;1.248;2022-07-06T09:29:06;22.50;68.00
51383;DHT22;37475;43.358;1.248;2022-07-06T09:31:33;22.50;67.30
51383;DHT22;37475;43.358;1.248;2022-07-06T09:34:01;22.80;68.30
51383;DHT22;37475;43.358;1.248;2022-07-06T09:36:45;22.80;67.40
51383;DHT22;37475;43.358;1.248;2022-07-06T09:39:23;22.90;67.80
51383;DHT22;37475;43.358;1.248;2022-07-06T09:41:53;22.60;67.90
51383;DHT22;37475;43.358;1.248;2022-07-06T09:44:27;22.80;67.60
51383;DHT22;37475;43.358;1.248;2022-07-06T09:47:03;23.10;67.50
51383;DHT22;37475;43.358;1.248;2022-07-06T09:49:31;23.30;67.70
51383;DHT22;37475;43.358;1.248;2022-07-06T09:52:02;23.50;66.60
51383;DHT22;37475;43.358;1.248;2022-07-06T09:54:30;23.50;65.70
51383;DHT22;37475;43.358;1.248;2022-07-06T09:56:57;23.80;65.30
51383;DHT22;37475;43.358;1.248;2022-07-06T09:59:28;24.00;64.10
51383;DHT22;37475;43.358;1.248;2022-07-06T10:02:02;24.20;63.40
51383;DHT22;37475;43.358;1.248;2022-07-06T10:04:33;24.30;63.00
51383;DHT22;37475;43.358;1.248;2022-07-06T10:06:59;24.40;64.30
51383;DHT22;37475;43.358;1.248;2022-07-06T10:09:28;24.30;64.20
51383;DHT22;37475;43.358;1.248;2022-07-06T10:11:59;24.30;62.90
51383;DHT22;37475;43.358;1.248;2022-07-06T10:14:29;24.50;63.10
51383;DHT22;37475;43.358;1.248;2022-07-06T10:16:57;24.50;61.10
51383;DHT22;37475;43.358;1.248;2022-07-06T10:19:25;24.20;63.10
51383;DHT22;37475;43.358;1.248;2022-07-06T10:21:52;24.30;63.90
51383;DHT22;37475;43.358;1.248;2022-07-06T10:24:21;24.40;61.70
51383;DHT22;37475;43.358;1.248;2022-07-06T10:26:48;24.30;62.60
51383;DHT22;37475;43.358;1.248;2022-07-06T10:29:14;24.50;62.60
51383;DHT22;37475;43.358;1.248;2022-07-06T10:31:43;24.60;63.50
51383;DHT22;37475;43.358;1.248;2022-07-06T10:34:12;24.80;61.60
51383;DHT22;37475;43.358;1.248;2022-07-06T10:36:42;24.90;61.50
51383;DHT22;37475;43.358;1.248;2022-07-06T10:39:09;24.90;60.80
51383;DHT22;37475;43.358;1.248;2022-07-06T10:41:54;25.30;60.90
51383;DHT22;37475;43.358;1.248;2022-07-06T10:44:23;26.00;59.30
51383;DHT22;37475;43.358;1.248;2022-07-06T10:46:56;25.70;56.80
51383;DHT22;37475;43.358;1.248;2022-07-06T10:49:26;25.60;56.90
51383;DHT22;37475;43.358;1.248;2022-07-06T10:51:52;25.90;57.10
51383;DHT22;37475;43.358;1.248;2022-07-06T10:54:20;25.60;57.20
51383;DHT22;37475;43.358;1.248;2022-07-06T10:56:50;25.60;57.20
51383;DHT22;37475;43.358;1.248;2022-07-06T10:59:23;25.90;56.80
51383;DHT22;37475;43.358;1.248;2022-07-06T11:02:18;25.90;56.00
51383;DHT22;37475;43.358;1.248;2022-07-06T11:04:48;25.70;58.20
51383;DHT22;37475;43.358;1.248;2022-07-06T11:07:17;26.00;58.60
51383;DHT22;37475;43.358;1.248;2022-07-06T11:09:58;26.10;57.20
51383;DHT22;37475;43.358;1.248;2022-07-06T11:12:25;26.20;55.70
51383;DHT22;37475;43.358;1.248;2022-07-06T11:14:52;25.70;56.90
51383;DHT22;37475;43.358;1.248;2022-07-06T11:17:18;25.70;57.30
51383;DHT22;37475;43.358;1.248;2022-07-06T11:19:49;25.50;57.80
51383;DHT22;37475;43.358;1.248;2022-07-06T11:22:17;26.00;56.30
51383;DHT22;37475;43.358;1.248;2022-07-06T11:24:45;26.00;55.90
51383;DHT22;37475;43.358;1.248;2022-07-06T11:27:12;26.30;54.60
51383;DHT22;37475;43.358;1.248;2022-07-06T11:29:38;26.50;54.20
51383;DHT22;37475;43.358;1.248;2022-07-06T11:32:06;26.40;54.10
51383;DHT22;37475;43.358;1.248;2022-07-06T11:34:43;26.30;53.80
51383;DHT22;37475;43.358;1.248;2022-07-06T11:37:16;26.40;54.40
51383;DHT22;37475;43.358;1.248;2022-07-06T11:39:44;26.20;53.80
51383;DHT22;37475;43.358;1.248;2022-07-06T11:42:16;26.30;53.20
51383;DHT22;37475;43.358;1.248;2022-07-06T11:44:43;26.30;52.90
51383;DHT22;37475;43.358;1.248;2022-07-06T11:47:11;26.00;52.10
51383;DHT22;37475;43.358;1.248;2022-07-06T11:49:39;26.10;52.70
51383;DHT22;37475;43.358;1.248;2022-07-06T11:52:10;26.20;51.30
51383;DHT22;37475;43.358;1.248;2022-07-06T11:54:42;26.30;51.80
51383;DHT22;37475;43.358;1.248;2022-07-06T11:57:10;26.50;50.60
51383;DHT22;37475;43.358;1.248;2022-07-06T11:59:38;26.20;52.40
51383;DHT22;37475;43.358;1.248;2022-07-06T12:02:06;26.40;51.60
51383;DHT22;37475;43.358;1.248;2022-07-06T12:04:37;26.50;52.30
51383;DHT22;37475;43.358;1.248;2022-07-06T12:07:10;26.40;51.10
51383;DHT22;37475;43.358;1.248;2022-07-06T12:09:40;26.30;52.70
51383;DHT22;37475;43.358;1.248;2022-07-06T12:12:08;26.10;50.10
51383;DHT22;37475;43.358;1.248;2022-07-06T12:14:37;26.50;49.80
51383;DHT22;37475;43.358;1.248;2022-07-06T12:17:11;26.40;51.10
51383;DHT22;37475;43.358;1.248;2022-07-06T12:19:39;26.30;52.50
51383;DHT22;37475;43.358;1.248;2022-07-06T12:22:06;26.30;52.70
51383;DHT22;37475;43.358;1.248;2022-07-06T12:24:34;26.20;53.00
51383;DHT22;37475;43.358;1.248;2022-07-06T12:27:14;26.10;52.50
51383;DHT22;37475;43.358;1.248;2022-07-06T12:29:42;26.20;50.90
51383;DHT22;37475;43.358;1.248;2022-07-06T12:32:17;26.30;51.90
51383;DHT22;37475;43.358;1.248;2022-07-06T12:34:45;26.20;52.00
51383;DHT22;37475;43.358;1.248;2022-07-06T12:37:11;26.40;51.40
51383;DHT22;37475;43.358;1.248;2022-07-06T12:39:46;26.80;50.60
51383;DHT22;37475;43.358;1.248;2022-07-06T12:42:17;27.10;48.50
51383;DHT22;37475;43.358;1.248;2022-07-06T12:44:54;26.60;49.40
51383;DHT22;37475;43.358;1.248;2022-07-06T12:47:22;27.00;48.80
51383;DHT22;37475;43.358;1.248;2022-07-06T12:50:07;26.90;48.10
51383;DHT22;37475;43.358;1.248;2022-07-06T12:52:34;26.70;50.30
51383;DHT22;37475;43.358;1.248;2022-07-06T12:55:01;26.80;47.70
51383;DHT22;37475;43.358;1.248;2022-07-06T12:57:42;26.50;48.60
51383;DHT22;37475;43.358;1.248;2022-07-06T13:00:10;27.00;47.40
51383;DHT22;37475;43.358;1.248;2022-07-06T13:02:36;27.40;47.10
51383;DHT22;37475;43.358;1.248;2022-07-06T13:05:07;27.10;46.50
51383;DHT22;37475;43.358;1.248;2022-07-06T13:07:36;27.00;45.70
51383;DHT22;37475;43.358;1.248;2022-07-06T13:10:06;26.60;48.00
51383;DHT22;37475;43.358;1.248;2022-07-06T13:12:33;27.00;47.10
51383;DHT22;37475;43.358;1.248;2022-07-06T13:14:59;27.30;45.40
51383;DHT22;37475;43.358;1.248;2022-07-06T13:17:25;27.30;44.30
51383;DHT22;37475;43.358;1.248;2022-07-06T13:19:52;27.70;44.00
51383;DHT22;37475;43.358;1.248;2022-07-06T13:22:18;27.50;44.80
51383;DHT22;37475;43.358;1.248;2022-07-06T13:24:43;27.50;45.30
51383;DHT22;37475;43.358;1.248;2022-07-06T13:27:10;27.80;44.70
51383;DHT22;37475;43.358;1.248;2022-07-06T13:29:36;28.00;44.50
51383;DHT22;37475;43.358;1.248;2022-07-06T13:32:06;27.90;42.90
51383;DHT22;37475;43.358;1.248;2022-07-06T13:34:33;28.00;42.70
51383;DHT22;37475;43.358;1.248;2022-07-06T13:37:00;28.10;42.70
51383;DHT22;37475;43.358;1.248;2022-07-06T13:39:27;28.20;43.90
51383;DHT22;37475;43.358;1.248;2022-07-06T13:41:54;29.10;42.90
51383;DHT22;37475;43.358;1.248;2022-07-06T13:44:20;29.30;41.60
51383;DHT22;37475;43.358;1.248;2022-07-06T13:46:46;29.80;39.50
51383;DHT22;37475;43.358;1.248;2022-07-06T13:49:12;29.90;38.80
51383;DHT22;37475;43.358;1.248;2022-07-06T13:51:38;29.20;38.80
51383;DHT22;37475;43.358;1.248;2022-07-06T13:54:04;29.10;39.70
51383;DHT22;37475;43.358;1.248;2022-07-06T13:56:30;29.90;39.20
51383;DHT22;37475;43.358;1.248;2022-07-06T13:58:56;30.30;36.80
51383;DHT22;37475;43.358;1.248;2022-07-06T14:01:23;29.50;36.30
51383;DHT22;37475;43.358;1.248;2022-07-06T14:03:49;28.70;37.30
51383;DHT22;37475;43.358;1.248;2022-07-06T14:06:15;29.20;38.00
51383;DHT22;37475;43.358;1.248;2022-07-06T14:08:42;28.90;37.90
51383;DHT22;37475;43.358;1.248;2022-07-06T14:11:09;29.00;36.00
51383;DHT22;37475;43.358;1.248;2022-07-06T14:13:36;29.60;35.40
51383;DHT22;37475;43.358;1.248;2022-07-06T14:16:03;30.00;35.30
51383;DHT22;37475;43.358;1.248;2022-07-06T14:18:29;30.00;35.30
51383;DHT22;37475;43.358;1.248;2022-07-06T14:20:56;29.60;35.80
51383;DHT22;37475;43.358;1.248;2022-07-06T14:23:22;29.70;35.00
51383;DHT22;37475;43.358;1.248;2022-07-06T14:25:49;29.70;35.70
51383;DHT22;37475;43.358;1.248;2022-07-06T14:28:15;29.40;33.60
51383;DHT22;37475;43.358;1.248;2022-07-06T14:30:43;29.60;33.90
51383;DHT22;37475;43.358;1.248;2022-07-06T14:33:11;30.00;33.50
51383;DHT22;37475;43.358;1.248;2022-07-06T14:35:40;29.20;34.00
51383;DHT22;37475;43.358;1.248;2022-07-06T14:38:08;28.90;37.70
51383;DHT22;37475;43.358;1.248;2022-07-06T14:40:35;28.60;36.80
51383;DHT22;37475;43.358;1.248;2022-07-06T14:43:02;29.10;36.90
51383;DHT22;37475;43.358;1.248;2022-07-06T14:45:29;29.00;37.00
51383;DHT22;37475;43.358;1.248;2022-07-06T14:47:55;28.80;37.60
51383;DHT22;37475;43.358;1.248;2022-07-06T14:50:22;28.80;35.90
51383;DHT22;37475;43.358;1.248;2022-07-06T14:52:52;28.70;36.50
51383;DHT22;37475;43.358;1.248;2022-07-06T14:55:19;29.10;34.60
51383;DHT22;37475;43.358;1.248;2022-07-06T14:57:45;29.10;34.70
51383;DHT22;37475;43.358;1.248;2022-07-06T15:00:12;28.80;34.80
51383;DHT22;37475;43.358;1.248;2022-07-06T15:02:38;28.80;33.20
51383;DHT22;37475;43.358;1.248;2022-07-06T15:05:05;28.80;32.40
51383;DHT22;37475;43.358;1.248;2022-07-06T15:07:31;28.50;33.40
51383;DHT22;37475;43.358;1.248;2022-07-06T15:09:57;28.50;33.20
51383;DHT22;37475;43.358;1.248;2022-07-06T15:12:23;28.50;33.80
51383;DHT22;37475;43.358;1.248;2022-07-06T15:14:49;28.70;33.30
51383;DHT22;37475;43.358;1.248;2022-07-06T15:17:15;28.60;33.60
51383;DHT22;37475;43.358;1.248;2022-07-06T15:19:42;28.80;33.00
51383;DHT22;37475;43.358;1.248;2022-07-06T15:22:10;29.00;34.30
51383;DHT22;37475;43.358;1.248;2022-07-06T15:24:36;28.60;34.40
51383;DHT22;37475;43.358;1.248;2022-07-06T15:27:03;28.80;34.20
51383;DHT22;37475;43.358;1.248;2022-07-06T15:29:30;28.80;32.60
51383;DHT22;37475;43.358;1.248;2022-07-06T15:31:57;28.90;33.00
51383;DHT22;37475;43.358;1.248;2022-07-06T15:34:23;28.80;32.90